sensor_id;sensor_type;location;lat;lon;timestamp;pressure;altitude;pressure_sealevel;temperature;humidity
31403;BME280;18039;52.188;21.024;2022-11-21T00:03:47;77793.16;;;-141.45;92.42
31403;BME280;18039;52.188;21.024;2022-11-21T00:06:15;77785.03;;;-141.45;92.91
31403;BME280;18039;52.188;21.024;2022-11-21T00:08:43;77785.03;;;-141.45;93.07
31403;BME280;18039;52.188;21.024;2022-11-21T00:11:11;77809.38;;;-141.45;93.07
31403;BME280;18039;52.188;21.024;2022-11-21T00:13:38;77764.75;;;-141.45;93.22
31403;BME280;18039;52.188;21.024;2022-11-21T00:16:10;77752.59;;;-141.45;93.23
31403;BME280;18039;52.188;21.024;2022-11-21T00:18:39;77744.47;;;-141.45;93.18
31403;BME280;18039;52.188;21.024;2022-11-21T00:21:10;77728.25;;;-141.45;93.01
31403;BME280;18039;52.188;21.024;2022-11-21T00:23:37;77712.03;;;-141.45;92.57
31403;BME280;18039;52.188;21.024;2022-11-21T00:26:09;77716.09;;;-141.45;92.46
31403;BME280;18039;52.188;21.024;2022-11-21T00:28:37;77705.94;;;-141.45;92.15
31403;BME280;18039;52.188;21.024;2022-11-21T00:31:04;77705.94;;;-141.45;92.45
31403;BME280;18039;52.188;21.024;2022-11-21T00:33:35;77703.94;;;-141.45;92.34
31403;BME280;18039;52.188;21.024;2022-11-21T00:36:07;77695.81;;;-141.45;92.31
31403;BME280;18039;52.188;21.024;2022-11-21T00:38:35;77695.81;;;-141.45;91.64
31403;BME280;18039;52.188;21.024;2022-11-21T00:41:03;77691.75;;;-141.45;91.77
31403;BME280;18039;52.188;21.024;2022-11-21T00:43:30;77683.66;;;-141.45;91.48
31403;BME280;18039;52.188;21.024;2022-11-21T00:45:57;77679.59;;;-141.45;91.24
31403;BME280;18039;52.188;21.024;2022-11-21T00:48:28;77673.50;;;-141.45;91.52
31403;BME280;18039;52.188;21.024;2022-11-21T00:50:55;77663.38;;;-141.45;91.05
31403;BME280;18039;52.188;21.024;2022-11-21T00:53:23;77659.31;;;-141.45;91.10
31403;BME280;18039;52.188;21.024;2022-11-21T00:55:49;77659.31;;;-141.45;91.09
31403;BME280;18039;52.188;21.024;2022-11-21T00:58:16;77655.25;;;-141.45;90.71
31403;BME280;18039;52.188;21.024;2022-11-21T01:00:43;77647.16;;;-141.45;90.57
31403;BME280;18039;52.188;21.024;2022-11-21T01:03:11;77651.19;;;-141.45;90.72
31403;BME280;18039;52.188;21.024;2022-11-21T01:05:38;77647.16;;;-141.45;90.62
31403;BME280;18039;52.188;21.024;2022-11-21T01:08:05;77639.03;;;-141.45;90.25
31403;BME280;18039;52.188;21.024;2022-11-21T01:10:33;77643.09;;;-141.45;90.21
31403;BME280;18039;52.188;21.024;2022-11-21T01:13:01;77645.13;;;-141.45;90.01
31403;BME280;18039;52.188;21.024;2022-11-21T01:15:28;77643.09;;;-141.45;89.86
31403;BME280;18039;52.188;21.024;2022-11-21T01:17:56;77659.31;;;-141.45;89.65
31403;BME280;18039;52.188;21.024;2022-11-21T01:20:22;77659.31;;;-141.45;90.19
31403;BME280;18039;52.188;21.024;2022-11-21T01:22:50;77657.28;;;-141.45;90.17
31403;BME280;18039;52.188;21.024;2022-11-21T01:25:17;77663.38;;;-141.45;90.04
31403;BME280;18039;52.188;21.024;2022-11-21T01:27:44;77671.47;;;-141.45;90.13
31403;BME280;18039;52.188;21.024;2022-11-21T01:30:11;77667.44;;;-141.45;90.15
31403;BME280;18039;52.188;21.024;2022-11-21T01:32:40;77687.69;;;-141.45;90.28
31403;BME280;18039;52.188;21.024;2022-11-21T01:35:07;77687.69;;;-141.45;90.61
31403;BME280;18039;52.188;21.024;2022-11-21T01:37:34;77695.81;;;-141.45;90.50
31403;BME280;18039;52.188;21.024;2022-11-21T01:40:02;77691.75;;;-141.45;90.54
31403;BME280;18039;52.188;21.024;2022-11-21T01:48:17;77695.81;;;-141.45;90.75
31403;BME280;18039;52.188;21.024;2022-11-21T01:50:44;77701.91;;;-141.45;90.77
31403;BME280;18039;52.188;21.024;2022-11-21T01:53:12;77705.94;;;-141.45;90.75
31403;BME280;18039;52.188;21.024;2022-11-21T01:55:39;77707.97;;;-141.45;90.75
31403;BME280;18039;52.188;21.024;2022-11-21T01:58:06;77707.97;;;-141.45;91.02
31403;BME280;18039;52.188;21.024;2022-11-21T02:00:36;77716.09;;;-141.45;90.86
31403;BME280;18039;52.188;21.024;2022-11-21T02:03:07;77716.09;;;-141.45;90.88
31403;BME280;18039;52.188;21.024;2022-11-21T02:05:37;77720.16;;;-141.45;91.15
31403;BME280;18039;52.188;21.024;2022-11-21T02:08:17;77716.09;;;-141.45;90.90
31403;BME280;18039;52.188;21.024;2022-11-21T02:11:10;77722.19;;;-141.45;91.21
31403;BME280;18039;52.188;21.024;2022-11-21T02:13:39;77738.41;;;-141.45;91.13
31403;BME280;18039;52.188;21.024;2022-11-21T02:16:06;77740.44;;;-141.45;91.38
31403;BME280;18039;52.188;21.024;2022-11-21T02:18:34;77752.59;;;-141.45;91.27
31403;BME280;18039;52.188;21.024;2022-11-21T02:21:19;77756.66;;;-141.45;91.29
31403;BME280;18039;52.188;21.024;2022-11-21T02:26:26;77768.81;;;-141.45;91.76
31403;BME280;18039;52.188;21.024;2022-11-21T02:28:53;77772.88;;;-141.45;91.80
31403;BME280;18039;52.188;21.024;2022-11-21T02:31:20;77776.94;;;-141.45;92.02
31403;BME280;18039;52.188;21.024;2022-11-21T02:33:47;77787.06;;;-141.45;91.95
31403;BME280;18039;52.188;21.024;2022-11-21T02:39:10;77805.31;;;-141.45;92.20
31403;BME280;18039;52.188;21.024;2022-11-21T02:41:45;77817.47;;;-141.45;92.29
31403;BME280;18039;52.188;21.024;2022-11-21T02:44:21;77821.53;;;-141.45;92.17
31403;BME280;18039;52.188;21.024;2022-11-21T02:46:50;77817.47;;;-141.45;92.52
31403;BME280;18039;52.188;21.024;2022-11-21T02:49:24;77813.44;;;-141.45;92.33
31403;BME280;18039;52.188;21.024;2022-11-21T02:51:54;77817.47;;;-141.45;92.25
31403;BME280;18039;52.188;21.024;2022-11-21T02:54:21;77821.53;;;-141.45;92.65
31403;BME280;18039;52.188;21.024;2022-11-21T02:56:47;77821.53;;;-141.45;92.64
31403;BME280;18039;52.188;21.024;2022-11-21T02:59:15;77833.69;;;-141.45;92.69
31403;BME280;18039;52.188;21.024;2022-11-21T03:01:41;77837.75;;;-141.45;92.80
31403;BME280;18039;52.188;21.024;2022-11-21T03:04:08;77845.88;;;-141.45;92.99
31403;BME280;18039;52.188;21.024;2022-11-21T03:06:35;77845.88;;;-141.45;92.63
31403;BME280;18039;52.188;21.024;2022-11-21T03:09:03;77845.88;;;-141.45;92.95
31403;BME280;18039;52.188;21.024;2022-11-21T03:11:29;77858.03;;;-141.45;92.91
31403;BME280;18039;52.188;21.024;2022-11-21T03:13:56;77858.03;;;-141.45;93.32
31403;BME280;18039;52.188;21.024;2022-11-21T03:16:23;77851.97;;;-141.45;93.18
31403;BME280;18039;52.188;21.024;2022-11-21T03:18:50;77860.06;;;-141.45;93.48
31403;BME280;18039;52.188;21.024;2022-11-21T03:21:17;77860.06;;;-141.45;93.43
31403;BME280;18039;52.188;21.024;2022-11-21T03:23:44;77882.38;;;-141.45;93.52
31403;BME280;18039;52.188;21.024;2022-11-21T03:26:11;77886.44;;;-141.45;93.24
31403;BME280;18039;52.188;21.024;2022-11-21T03:28:40;77890.47;;;-141.45;93.39
31403;BME280;18039;52.188;21.024;2022-11-21T03:31:08;77886.44;;;-141.45;93.23
31403;BME280;18039;52.188;21.024;2022-11-21T03:33:35;77890.47;;;-141.45;93.56
31403;BME280;18039;52.188;21.024;2022-11-21T03:36:02;77882.38;;;-141.45;93.54
31403;BME280;18039;52.188;21.024;2022-11-21T03:38:29;77878.31;;;-141.45;93.61
31403;BME280;18039;52.188;21.024;2022-11-21T03:40:56;77880.34;;;-141.45;93.67
31403;BME280;18039;52.188;21.024;2022-11-21T03:43:24;77882.38;;;-141.45;93.68
31403;BME280;18039;52.188;21.024;2022-11-21T03:45:51;77882.38;;;-141.45;93.67
31403;BME280;18039;52.188;21.024;2022-11-21T03:48:18;77886.44;;;-141.45;94.00
31403;BME280;18039;52.188;21.024;2022-11-21T03:50:45;77890.47;;;-141.45;94.04
31403;BME280;18039;52.188;21.024;2022-11-21T03:53:12;77894.53;;;-141.45;93.97
31403;BME280;18039;52.188;21.024;2022-11-21T03:55:41;77890.47;;;-141.45;93.97
31403;BME280;18039;52.188;21.024;2022-11-21T03:58:09;77886.44;;;-141.45;94.23
31403;BME280;18039;52.188;21.024;2022-11-21T04:00:35;77894.53;;;-141.45;94.21
31403;BME280;18039;52.188;21.024;2022-11-21T04:03:03;77890.47;;;-141.45;94.25
31403;BME280;18039;52.188;21.024;2022-11-21T04:05:29;77894.53;;;-141.45;94.16
31403;BME280;18039;52.188;21.024;2022-11-21T04:07:56;77890.47;;;-141.45;94.44
31403;BME280;18039;52.188;21.024;2022-11-21T04:10:23;77904.69;;;-141.45;94.26
31403;BME280;18039;52.188;21.024;2022-11-21T04:13:08;77914.81;;;-141.45;94.18
31403;BME280;18039;52.188;21.024;2022-11-21T04:15:35;77904.69;;;-141.45;94.04
31403;BME280;18039;52.188;21.024;2022-11-21T04:18:02;77918.88;;;-141.45;94.21
31403;BME280;18039;52.188;21.024;2022-11-21T04:20:30;77912.78;;;-141.45;94.35
31403;BME280;18039;52.188;21.024;2022-11-21T04:22:56;77914.81;;;-141.45;94.34
31403;BME280;18039;52.188;21.024;2022-11-21T04:25:24;77906.72;;;-141.45;94.22
31403;BME280;18039;52.188;21.024;2022-11-21T04:27:50;77910.75;;;-141.45;94.30
31403;BME280;18039;52.188;21.024;2022-11-21T04:30:17;77906.72;;;-141.45;94.30
31403;BME280;18039;52.188;21.024;2022-11-21T04:32:44;77918.88;;;-141.45;94.17
31403;BME280;18039;52.188;21.024;2022-11-21T04:35:13;77922.94;;;-141.45;94.13
31403;BME280;18039;52.188;21.024;2022-11-21T04:37:40;77922.94;;;-141.45;93.99
31403;BME280;18039;52.188;21.024;2022-11-21T04:40:08;77926.97;;;-141.45;94.18
31403;BME280;18039;52.188;21.024;2022-11-21T04:42:34;77926.97;;;-141.45;94.17
31403;BME280;18039;52.188;21.024;2022-11-21T04:45:02;77918.88;;;-141.45;94.29
31403;BME280;18039;52.188;21.024;2022-11-21T04:47:29;77920.91;;;-141.45;94.36
31403;BME280;18039;52.188;21.024;2022-11-21T04:49:57;77922.94;;;-141.45;94.45
31403;BME280;18039;52.188;21.024;2022-11-21T04:52:24;77922.94;;;-141.45;94.58
31403;BME280;18039;52.188;21.024;2022-11-21T04:54:51;77922.94;;;-141.45;94.46
31403;BME280;18039;52.188;21.024;2022-11-21T04:57:18;77926.97;;;-141.45;94.30
31403;BME280;18039;52.188;21.024;2022-11-21T04:59:45;77918.88;;;-141.45;94.67
31403;BME280;18039;52.188;21.024;2022-11-21T05:02:12;77914.81;;;-141.45;94.67
31403;BME280;18039;52.188;21.024;2022-11-21T05:04:39;77920.91;;;-141.45;94.62
31403;BME280;18039;52.188;21.024;2022-11-21T05:07:06;77922.94;;;-141.45;94.52
31403;BME280;18039;52.188;21.024;2022-11-21T05:09:33;77931.03;;;-141.45;94.49
31403;BME280;18039;52.188;21.024;2022-11-21T05:12:00;77929.00;;;-141.45;94.46
31403;BME280;18039;52.188;21.024;2022-11-21T05:14:46;77926.97;;;-141.45;94.51
31403;BME280;18039;52.188;21.024;2022-11-21T05:17:13;77929.00;;;-141.45;94.44
31403;BME280;18039;52.188;21.024;2022-11-21T05:19:40;77929.00;;;-141.45;94.57
31403;BME280;18039;52.188;21.024;2022-11-21T05:22:07;77943.22;;;-141.45;94.54
31403;BME280;18039;52.188;21.024;2022-11-21T05:24:34;77947.25;;;-141.45;94.50
31403;BME280;18039;52.188;21.024;2022-11-21T05:27:01;77947.25;;;-141.45;94.49
31403;BME280;18039;52.188;21.024;2022-11-21T05:29:28;77955.38;;;-141.45;94.52
31403;BME280;18039;52.188;21.024;2022-11-21T05:31:55;77961.47;;;-141.45;94.47
31403;BME280;18039;52.188;21.024;2022-11-21T05:34:22;77963.50;;;-141.45;94.51
31403;BME280;18039;52.188;21.024;2022-11-21T05:36:51;77955.38;;;-141.45;94.36
31403;BME280;18039;52.188;21.024;2022-11-21T05:39:23;77969.56;;;-141.45;94.53
31403;BME280;18039;52.188;21.024;2022-11-21T05:41:50;77979.72;;;-141.45;94.58
31403;BME280;18039;52.188;21.024;2022-11-21T05:44:18;77967.53;;;-141.45;94.84
31403;BME280;18039;52.188;21.024;2022-11-21T05:46:45;77971.59;;;-141.45;94.85
31403;BME280;18039;52.188;21.024;2022-11-21T05:49:12;77959.44;;;-141.45;95.03
31403;BME280;18039;52.188;21.024;2022-11-21T05:51:39;77963.50;;;-141.45;95.12
31403;BME280;18039;52.188;21.024;2022-11-21T05:54:06;77955.38;;;-141.45;95.04
31403;BME280;18039;52.188;21.024;2022-11-21T05:56:33;77955.38;;;-141.45;94.92
31403;BME280;18039;52.188;21.024;2022-11-21T05:59:01;77951.31;;;-141.45;95.06
31403;BME280;18039;52.188;21.024;2022-11-21T06:01:27;77939.16;;;-141.45;94.99
31403;BME280;18039;52.188;21.024;2022-11-21T06:04:13;77939.16;;;-141.45;95.05
31403;BME280;18039;52.188;21.024;2022-11-21T06:06:40;77939.16;;;-141.45;94.98
31403;BME280;18039;52.188;21.024;2022-11-21T06:09:07;77951.31;;;-141.45;94.76
31403;BME280;18039;52.188;21.024;2022-11-21T06:11:34;77963.50;;;-141.45;94.29
31403;BME280;18039;52.188;21.024;2022-11-21T06:14:01;77967.53;;;-141.45;94.17
31403;BME280;18039;52.188;21.024;2022-11-21T06:16:28;77967.53;;;-141.45;94.22
31403;BME280;18039;52.188;21.024;2022-11-21T06:18:56;77971.59;;;-141.45;93.97
31403;BME280;18039;52.188;21.024;2022-11-21T06:21:26;77971.59;;;-141.45;94.13
31403;BME280;18039;52.188;21.024;2022-11-21T06:23:56;77971.59;;;-141.45;94.51
31403;BME280;18039;52.188;21.024;2022-11-21T06:26:25;77963.50;;;-141.45;94.55
31403;BME280;18039;52.188;21.024;2022-11-21T06:28:53;77951.31;;;-141.45;94.74
31403;BME280;18039;52.188;21.024;2022-11-21T06:31:22;77949.28;;;-141.45;94.56
31403;BME280;18039;52.188;21.024;2022-11-21T06:33:54;77955.38;;;-141.45;94.50
31403;BME280;18039;52.188;21.024;2022-11-21T06:36:22;77943.22;;;-141.45;94.66
31403;BME280;18039;52.188;21.024;2022-11-21T06:38:52;77929.00;;;-141.45;94.51
31403;BME280;18039;52.188;21.024;2022-11-21T06:41:21;77935.09;;;-141.45;94.46
31403;BME280;18039;52.188;21.024;2022-11-21T06:43:49;77914.81;;;-141.45;94.76
31403;BME280;18039;52.188;21.024;2022-11-21T06:46:16;77906.72;;;-141.45;94.97
31403;BME280;18039;52.188;21.024;2022-11-21T06:48:43;77892.50;;;-141.45;95.00
31403;BME280;18039;52.188;21.024;2022-11-21T06:51:18;77890.47;;;-141.45;94.71
31403;BME280;18039;52.188;21.024;2022-11-21T06:53:50;77884.41;;;-141.45;94.61
31403;BME280;18039;52.188;21.024;2022-11-21T06:56:25;77870.22;;;-141.45;94.52
31403;BME280;18039;52.188;21.024;2022-11-21T06:58:53;77866.16;;;-141.45;94.58
31403;BME280;18039;52.188;21.024;2022-11-21T07:01:20;77847.91;;;-141.45;94.49
31403;BME280;18039;52.188;21.024;2022-11-21T07:03:48;77849.94;;;-141.45;94.04
31403;BME280;18039;52.188;21.024;2022-11-21T07:06:15;77829.66;;;-141.45;93.93
31403;BME280;18039;52.188;21.024;2022-11-21T07:08:42;77825.59;;;-141.45;93.56
31403;BME280;18039;52.188;21.024;2022-11-21T07:11:11;77811.41;;;-141.45;93.40
31403;BME280;18039;52.188;21.024;2022-11-21T07:13:54;77803.28;;;-141.45;93.15
31403;BME280;18039;52.188;21.024;2022-11-21T07:16:22;77785.03;;;-141.45;93.44
31403;BME280;18039;52.188;21.024;2022-11-21T07:18:52;77772.88;;;-141.45;92.90
31403;BME280;18039;52.188;21.024;2022-11-21T07:21:20;77760.69;;;-141.45;92.74
31403;BME280;18039;52.188;21.024;2022-11-21T07:23:49;77744.47;;;-141.45;92.95
31403;BME280;18039;52.188;21.024;2022-11-21T07:26:16;77740.44;;;-141.45;92.53
31403;BME280;18039;52.188;21.024;2022-11-21T07:28:43;77724.19;;;-141.45;92.53
31403;BME280;18039;52.188;21.024;2022-11-21T07:31:10;77712.03;;;-141.45;92.55
31403;BME280;18039;52.188;21.024;2022-11-21T07:33:41;77712.03;;;-141.45;91.72
31403;BME280;18039;52.188;21.024;2022-11-21T07:36:12;77699.88;;;-141.45;91.52
31403;BME280;18039;52.188;21.024;2022-11-21T07:38:40;77699.88;;;-141.45;91.51
31403;BME280;18039;52.188;21.024;2022-11-21T07:41:09;77687.69;;;-141.45;91.70
31403;BME280;18039;52.188;21.024;2022-11-21T07:43:36;77679.59;;;-141.45;90.94
31403;BME280;18039;52.188;21.024;2022-11-21T07:46:04;77671.47;;;-141.45;90.74
31403;BME280;18039;52.188;21.024;2022-11-21T07:48:31;77675.53;;;-141.45;90.40
31403;BME280;18039;52.188;21.024;2022-11-21T07:51:02;77671.47;;;-141.45;90.30
31403;BME280;18039;52.188;21.024;2022-11-21T07:53:29;77675.53;;;-141.45;90.45
31403;BME280;18039;52.188;21.024;2022-11-21T07:55:58;77657.28;;;-141.45;89.98
31403;BME280;18039;52.188;21.024;2022-11-21T07:58:31;77671.47;;;-141.45;89.60
31403;BME280;18039;52.188;21.024;2022-11-21T08:04:57;77683.66;;;-141.45;89.28
31403;BME280;18039;52.188;21.024;2022-11-21T08:07:27;77707.97;;;-141.45;89.29
31403;BME280;18039;52.188;21.024;2022-11-21T08:10:03;77687.69;;;-141.45;89.57
31403;BME280;18039;52.188;21.024;2022-11-21T08:12:31;77671.47;;;-141.45;89.52
31403;BME280;18039;52.188;21.024;2022-11-21T08:14:59;77671.47;;;-141.45;88.88
31403;BME280;18039;52.188;21.024;2022-11-21T08:17:26;77675.53;;;-141.45;88.92
31403;BME280;18039;52.188;21.024;2022-11-21T08:19:53;77659.31;;;-141.45;88.95
31403;BME280;18039;52.188;21.024;2022-11-21T08:22:20;77651.19;;;-141.45;88.86
31403;BME280;18039;52.188;21.024;2022-11-21T08:24:48;77649.19;;;-141.45;88.71
31403;BME280;18039;52.188;21.024;2022-11-21T08:27:55;77634.97;;;-141.45;88.10
31403;BME280;18039;52.188;21.024;2022-11-21T08:30:23;77628.91;;;-141.45;87.95
31403;BME280;18039;52.188;21.024;2022-11-21T08:32:51;77628.91;;;-141.45;88.01
31403;BME280;18039;52.188;21.024;2022-11-21T08:35:19;77622.81;;;-141.45;88.13
31403;BME280;18039;52.188;21.024;2022-11-21T08:37:59;77622.81;;;-141.45;87.70
31403;BME280;18039;52.188;21.024;2022-11-21T08:40:28;77614.69;;;-141.45;87.60
31403;BME280;18039;52.188;21.024;2022-11-21T08:45:28;77600.50;;;-141.45;87.09
31403;BME280;18039;52.188;21.024;2022-11-21T08:47:55;77596.44;;;-141.45;87.49
31403;BME280;18039;52.188;21.024;2022-11-21T08:50:23;77586.31;;;-141.45;87.29
31403;BME280;18039;52.188;21.024;2022-11-21T08:52:50;77570.09;;;-141.45;87.99
31403;BME280;18039;52.188;21.024;2022-11-21T08:55:18;77553.88;;;-141.45;87.49
31403;BME280;18039;52.188;21.024;2022-11-21T08:57:45;77533.59;;;-141.45;87.26
31403;BME280;18039;52.188;21.024;2022-11-21T09:00:13;77517.38;;;-141.45;86.56
31403;BME280;18039;52.188;21.024;2022-11-21T09:02:40;77505.22;;;-141.45;86.74
31403;BME280;18039;52.188;21.024;2022-11-21T09:05:08;77480.88;;;-141.45;86.77
31403;BME280;18039;52.188;21.024;2022-11-21T09:07:35;77464.66;;;-141.45;86.18
31403;BME280;18039;52.188;21.024;2022-11-21T09:10:03;77460.59;;;-141.45;84.82
31403;BME280;18039;52.188;21.024;2022-11-21T09:12:30;77444.38;;;-141.45;84.89
31403;BME280;18039;52.188;21.024;2022-11-21T09:14:58;77438.31;;;-141.45;84.58
31403;BME280;18039;52.188;21.024;2022-11-21T09:18:17;77432.22;;;-141.45;84.14
31403;BME280;18039;52.188;21.024;2022-11-21T09:21:49;77416.00;;;-141.45;83.98
31403;BME280;18039;52.188;21.024;2022-11-21T09:24:17;77407.88;;;-141.45;83.85
31403;BME280;18039;52.188;21.024;2022-11-21T09:26:44;77395.72;;;-141.45;83.14
31403;BME280;18039;52.188;21.024;2022-11-21T09:29:12;77373.41;;;-141.45;83.43
31403;BME280;18039;52.188;21.024;2022-11-21T09:31:41;77371.38;;;-141.45;82.64
31403;BME280;18039;52.188;21.024;2022-11-21T09:34:10;77363.28;;;-141.45;82.24
31403;BME280;18039;52.188;21.024;2022-11-21T09:36:37;77355.16;;;-141.45;82.27
31403;BME280;18039;52.188;21.024;2022-11-21T09:39:06;77334.91;;;-141.45;82.44
31403;BME280;18039;52.188;21.024;2022-11-21T09:47:28;77330.84;;;-141.45;82.23
31403;BME280;18039;52.188;21.024;2022-11-21T09:50:03;77338.94;;;-141.45;82.17
31403;BME280;18039;52.188;21.024;2022-11-21T09:52:48;77340.97;;;-141.45;82.55
31403;BME280;18039;52.188;21.024;2022-11-21T09:58:04;77318.66;;;-141.45;82.69
31403;BME280;18039;52.188;21.024;2022-11-21T10:00:33;77314.63;;;-141.45;83.13
31403;BME280;18039;52.188;21.024;2022-11-21T10:03:02;77314.63;;;-141.45;82.53
31403;BME280;18039;52.188;21.024;2022-11-21T10:08:20;77294.34;;;-141.45;82.92
31403;BME280;18039;52.188;21.024;2022-11-21T10:11:03;77282.19;;;-141.45;82.45
31403;BME280;18039;52.188;21.024;2022-11-21T10:14:11;77261.91;;;-141.45;82.30
31403;BME280;18039;52.188;21.024;2022-11-21T10:23:05;77249.75;;;-141.45;82.22
31403;BME280;18039;52.188;21.024;2022-11-21T10:25:38;77245.69;;;-141.45;81.43
31403;BME280;18039;52.188;21.024;2022-11-21T10:28:19;77233.53;;;-141.45;81.34
31403;BME280;18039;52.188;21.024;2022-11-21T10:30:52;77223.38;;;-141.45;81.02
31403;BME280;18039;52.188;21.024;2022-11-21T10:33:30;77219.31;;;-141.45;80.77
31403;BME280;18039;52.188;21.024;2022-11-21T10:36:07;77209.19;;;-141.45;80.77
31403;BME280;18039;52.188;21.024;2022-11-21T10:38:40;77201.06;;;-141.45;79.87
31403;BME280;18039;52.188;21.024;2022-11-21T10:43:46;77172.69;;;-141.45;79.85
31403;BME280;18039;52.188;21.024;2022-11-21T10:46:35;77148.38;;;-141.45;79.15
31403;BME280;18039;52.188;21.024;2022-11-21T10:49:03;77132.16;;;-141.45;79.19
31403;BME280;18039;52.188;21.024;2022-11-21T10:51:44;77124.03;;;-141.45;78.38
31403;BME280;18039;52.188;21.024;2022-11-21T10:54:14;77119.97;;;-141.45;77.71
31403;BME280;18039;52.188;21.024;2022-11-21T10:57:15;77122.00;;;-141.45;77.81
31403;BME280;18039;52.188;21.024;2022-11-21T10:59:58;77136.19;;;-141.45;78.11
31403;BME280;18039;52.188;21.024;2022-11-21T11:02:27;77132.16;;;-141.45;77.94
31403;BME280;18039;52.188;21.024;2022-11-21T11:08:12;77109.84;;;-141.45;78.34
31403;BME280;18039;52.188;21.024;2022-11-21T11:10:45;77103.75;;;-141.45;77.79
31403;BME280;18039;52.188;21.024;2022-11-21T11:13:31;77095.66;;;-141.45;77.90
31403;BME280;18039;52.188;21.024;2022-11-21T11:16:19;77071.31;;;-141.45;77.54
31403;BME280;18039;52.188;21.024;2022-11-21T11:19:00;77071.31;;;-141.45;77.51
31403;BME280;18039;52.188;21.024;2022-11-21T11:24:25;77030.78;;;-141.45;76.92
31403;BME280;18039;52.188;21.024;2022-11-21T11:27:01;77014.56;;;-141.45;76.02
31403;BME280;18039;52.188;21.024;2022-11-21T11:29:32;77000.38;;;-141.45;75.34
31403;BME280;18039;52.188;21.024;2022-11-21T11:32:16;76980.09;;;-141.45;75.34
31403;BME280;18039;52.188;21.024;2022-11-21T11:34:57;76961.84;;;-141.45;74.47
31403;BME280;18039;52.188;21.024;2022-11-21T11:37:40;76957.78;;;-141.45;74.45
31403;BME280;18039;52.188;21.024;2022-11-21T11:40:22;76941.56;;;-141.45;74.28
31403;BME280;18039;52.188;21.024;2022-11-21T11:49:29;76937.53;;;-141.45;73.79
31403;BME280;18039;52.188;21.024;2022-11-21T11:52:21;76953.75;;;-141.45;74.51
31403;BME280;18039;52.188;21.024;2022-11-21T11:54:57;76941.56;;;-141.45;74.39
31403;BME280;18039;52.188;21.024;2022-11-21T11:57:30;76941.56;;;-141.45;74.68
31403;BME280;18039;52.188;21.024;2022-11-21T12:03:07;76937.53;;;-141.45;74.49
31403;BME280;18039;52.188;21.024;2022-11-21T12:05:53;76925.34;;;-141.45;74.62
31403;BME280;18039;52.188;21.024;2022-11-21T12:08:45;76876.69;;;-141.45;74.28
31403;BME280;18039;52.188;21.024;2022-11-21T12:11:22;76846.28;;;-141.45;73.16
31403;BME280;18039;52.188;21.024;2022-11-21T12:14:25;76840.22;;;-141.45;72.44
31403;BME280;18039;52.188;21.024;2022-11-21T12:17:18;76846.28;;;-141.45;72.28
31403;BME280;18039;52.188;21.024;2022-11-21T12:19:49;76836.16;;;-141.45;72.20
31403;BME280;18039;52.188;21.024;2022-11-21T12:22:18;76840.22;;;-141.45;72.38
31403;BME280;18039;52.188;21.024;2022-11-21T12:24:45;76844.25;;;-141.45;73.57
31403;BME280;18039;52.188;21.024;2022-11-21T12:30:09;76905.09;;;-141.45;74.56
31403;BME280;18039;52.188;21.024;2022-11-21T12:35:49;76919.28;;;-141.45;75.81
31403;BME280;18039;52.188;21.024;2022-11-21T12:41:37;76929.41;;;-141.45;76.57
31403;BME280;18039;52.188;21.024;2022-11-21T12:59:05;76949.69;;;-141.45;79.20
31403;BME280;18039;52.188;21.024;2022-11-21T13:01:49;76953.75;;;-141.45;79.59
31403;BME280;18039;52.188;21.024;2022-11-21T13:04:27;76953.75;;;-141.45;80.06
31403;BME280;18039;52.188;21.024;2022-11-21T13:06:57;76961.84;;;-141.45;80.70
31403;BME280;18039;52.188;21.024;2022-11-21T13:09:26;76965.91;;;-141.45;80.68
31403;BME280;18039;52.188;21.024;2022-11-21T13:14:41;76969.94;;;-141.45;81.39
31403;BME280;18039;52.188;21.024;2022-11-21T13:25:36;76957.78;;;-141.45;81.01
31403;BME280;18039;52.188;21.024;2022-11-21T13:30:54;76947.66;;;-141.45;81.17
31403;BME280;18039;52.188;21.024;2022-11-21T13:36:05;76945.63;;;-141.45;81.01
31403;BME280;18039;52.188;21.024;2022-11-21T13:50:07;76957.78;;;-141.45;81.98
31403;BME280;18039;52.188;21.024;2022-11-21T13:53:16;76953.75;;;-141.45;82.32
31403;BME280;18039;52.188;21.024;2022-11-21T13:56:14;76953.75;;;-141.45;81.97
31403;BME280;18039;52.188;21.024;2022-11-21T14:01:31;76963.88;;;-141.45;81.80
31403;BME280;18039;52.188;21.024;2022-11-21T14:07:21;76965.91;;;-141.45;81.80
31403;BME280;18039;52.188;21.024;2022-11-21T14:09:54;76969.94;;;-141.45;81.81
31403;BME280;18039;52.188;21.024;2022-11-21T14:12:34;76969.94;;;-141.45;82.04
31403;BME280;18039;52.188;21.024;2022-11-21T14:15:45;76963.88;;;-141.45;82.28
31403;BME280;18039;52.188;21.024;2022-11-21T14:18:21;76969.94;;;-141.45;82.00
31403;BME280;18039;52.188;21.024;2022-11-21T14:20:56;76969.94;;;-141.45;82.03
31403;BME280;18039;52.188;21.024;2022-11-21T14:23:26;76971.97;;;-141.45;82.01
31403;BME280;18039;52.188;21.024;2022-11-21T14:26:03;76971.97;;;-141.45;82.43
31403;BME280;18039;52.188;21.024;2022-11-21T14:28:33;76974.00;;;-141.45;82.49
31403;BME280;18039;52.188;21.024;2022-11-21T14:31:03;76965.91;;;-141.45;82.48
31403;BME280;18039;52.188;21.024;2022-11-21T14:33:34;76974.00;;;-141.45;82.22
31403;BME280;18039;52.188;21.024;2022-11-21T14:36:16;76986.16;;;-141.45;82.55
31403;BME280;18039;52.188;21.024;2022-11-21T14:38:47;76994.28;;;-141.45;82.94
31403;BME280;18039;52.188;21.024;2022-11-21T14:41:37;77004.41;;;-141.45;83.01
31403;BME280;18039;52.188;21.024;2022-11-21T14:51:44;77010.50;;;-141.45;83.06
31403;BME280;18039;52.188;21.024;2022-11-21T14:54:24;77022.66;;;-141.45;82.98